CheckWX is a tool to help pilots better visualize weather data.  It is not intended as a substitute for an official pre-flight weather briefing.

15:14:03 UTC

KFPR METAR
Treasure Coast International Airport
Fort Pierce, Florida, USA
Current

21 mins ago

KFPR 261453Z 10009KT 10SM SCT024 29/21 A3015 RMK AO2 SLP210 T02890211 50005
Observed
May-26 @ 14:53 UTC
Wind
  • 100° at 9 KTS
Visibility
10 SM
Flight Rules
VFR
Cloud Levels
  • Scattered at 2,400' AGL
Temperature
29°C / 84°F
Dewpoint
21°C / 70°F
Heat Index
31°C / 88°F
Humidity
62%
Altimeter
30.15" Hg
Pressure
1021.02 hPa
Previous

1 hour ago

KFPR 261353Z 11012KT 10SM FEW023 28/21 A3016 RMK AO2 SLP212 T02830206
Observed
May-26 @ 13:53 UTC
Wind
  • 110° at 12 KTS
Visibility
10 SM
Flight Rules
VFR
Cloud Levels
  • Few at 2,300' AGL
Temperature
28°C / 82°F
Dewpoint
21°C / 70°F
Heat Index
30°C / 86°F
Humidity
66%
Altimeter
30.16" Hg
Pressure
1021.32 hPa
Previous

2 hours ago

KFPR 261253Z 11010KT 10SM FEW021 27/21 A3016 RMK AO2 SLP211 T02720211
Observed
May-26 @ 12:53 UTC
Wind
  • 110° at 10 KTS
Visibility
10 SM
Flight Rules
VFR
Cloud Levels
  • Few at 2,100' AGL
Temperature
27°C / 81°F
Dewpoint
21°C / 70°F
Heat Index
29°C / 85°F
Humidity
70%
Altimeter
30.16" Hg
Pressure
1021.32 hPa